Time;durP1;ratioP1;P1;durP2;ratioP2;P2;SDS_P1;SDS_P2;PMS_P1;PMS_P2;Temp;Humidity;BMP_temperature;BMP_pressure;BME280_temperature;BME280_humidity;BME280_pressure;Samples;Min_cycle;Max_cycle;Signal;HPM_P1;HPM_P2
2023/08/01 00:02:16;;;;;;;16.15;7.93;;;;;;;22.17;90.96;100199.09;5116466;28;20461;-79
2023/08/01 00:04:41;;;;;;;10.15;7.60;;;;;;;22.01;91.02;100166.69;5121477;28;20030;-77
2023/08/01 00:07:07;;;;;;;10.80;8.32;;;;;;;22.06;91.23;100180.56;5117806;28;20084;-79
2023/08/01 00:09:33;;;;;;;14.93;8.07;;;;;;;22.15;92.14;100193.00;5110337;28;20582;-80
2023/08/01 00:11:58;;;;;;;10.70;7.30;;;;;;;22.05;91.88;100187.94;5110562;28;20050;-79
2023/08/01 00:14:26;;;;;;;8.48;7.43;;;;;;;22.09;90.72;100191.09;5109943;28;20016;-79
2023/08/01 00:16:52;;;;;;;10.15;8.00;;;;;;;22.12;89.66;100196.16;5109658;28;20059;-78
2023/08/01 00:19:18;;;;;;;13.43;7.63;;;;;;;22.16;89.28;100191.97;5110538;28;20055;-79
2023/08/01 00:21:43;;;;;;;15.38;7.68;;;;;;;22.04;89.99;100188.16;5110355;28;20031;-79
2023/08/01 00:24:09;;;;;;;16.02;7.75;;;;;;;22.13;90.75;100195.13;5110478;28;20044;-77
2023/08/01 00:26:34;;;;;;;11.75;6.78;;;;;;;21.88;90.83;100162.03;5111038;28;20030;-79
2023/08/01 00:29:00;;;;;;;20.98;7.03;;;;;;;21.97;90.60;100171.72;5110210;28;20038;-77
2023/08/01 00:31:26;;;;;;;8.75;7.25;;;;;;;22.01;89.89;100183.09;5110502;28;20059;-79
2023/08/01 00:33:51;;;;;;;8.90;6.72;;;;;;;22.02;90.79;100179.28;5110258;28;20043;-81
2023/08/01 00:36:16;;;;;;;9.93;7.50;;;;;;;22.00;91.13;100186.88;5110367;28;20046;-78
2023/08/01 00:38:43;;;;;;;9.38;7.35;;;;;;;21.86;91.38;100166.00;5110120;28;20027;-78
2023/08/01 00:41:09;;;;;;;12.38;7.32;;;;;;;21.91;92.47;100168.97;5110620;28;20073;-79
2023/08/01 00:43:35;;;;;;;11.63;7.72;;;;;;;22.04;92.89;100182.69;5110870;28;20031;-80
2023/08/01 00:46:03;;;;;;;12.10;6.85;;;;;;;21.85;93.02;100156.94;5110434;28;20035;-79
2023/08/01 00:48:29;;;;;;;9.32;7.22;;;;;;;21.86;92.05;100149.56;5110834;28;20050;-79
2023/08/01 00:50:56;;;;;;;12.25;6.53;;;;;;;21.95;92.21;100167.50;5110909;28;20027;-78
2023/08/01 00:53:22;;;;;;;11.95;7.22;;;;;;;21.97;93.67;100188.16;5110491;28;20034;-80
2023/08/01 00:55:48;;;;;;;10.23;7.25;;;;;;;21.92;94.26;100185.22;5092453;28;20383;-78
2023/08/01 00:58:13;;;;;;;9.43;7.03;;;;;;;21.79;94.47;100156.94;5111018;28;20394;-80
2023/08/01 01:00:39;;;;;;;11.20;7.40;;;;;;;21.79;93.21;100167.88;5119105;28;20019;-78
2023/08/01 01:03:05;;;;;;;13.98;8.20;;;;;;;21.80;94.54;100159.47;5114652;28;20034;-78
2023/08/01 01:05:37;;;;;;;9.93;7.97;;;;;;;21.75;94.34;100161.13;5110011;28;20043;-76
2023/08/01 01:08:04;;;;;;;10.27;7.78;;;;;;;21.64;94.90;100144.28;5113951;28;20175;-79
2023/08/01 01:10:30;;;;;;;10.82;8.05;;;;;;;21.70;95.66;100157.13;5114108;28;20141;-77
2023/08/01 01:12:56;;;;;;;9.40;8.10;;;;;;;21.70;95.59;100159.88;5113759;28;20059;-78
2023/08/01 01:15:21;;;;;;;11.48;7.30;;;;;;;21.69;95.31;100160.06;5113570;28;20112;-77
2023/08/01 01:17:47;;;;;;;12.55;7.88;;;;;;;21.73;95.71;100171.44;5113419;28;20027;-78
2023/08/01 01:20:12;;;;;;;13.88;8.07;;;;;;;21.69;95.86;100169.13;5113603;28;20104;-78
2023/08/01 01:22:40;;;;;;;14.27;7.32;;;;;;;21.69;96.09;100163.66;5113064;28;20122;-78
2023/08/01 01:25:08;;;;;;;17.00;8.65;;;;;;;21.56;95.86;100155.41;5113235;28;20047;-77
2023/08/01 01:27:35;;;;;;;14.30;8.52;;;;;;;21.61;97.11;100165.75;5113501;28;20025;-78
2023/08/01 01:30:04;;;;;;;10.90;7.75;;;;;;;21.54;97.44;100165.72;5076826;28;20697;-77
2023/08/01 01:32:30;;;;;;;11.70;8.05;;;;;;;21.44;97.25;100157.06;5113510;28;20102;-80
2023/08/01 01:34:56;;;;;;;11.18;8.75;;;;;;;21.49;97.25;100149.09;5113649;28;20087;-79
2023/08/01 01:37:21;;;;;;;9.75;7.72;;;;;;;21.53;98.12;100164.03;5113084;28;20487;-80
2023/08/01 01:39:46;;;;;;;13.45;8.75;;;;;;;21.37;98.61;100109.72;5112922;28;20028;-79
2023/08/01 01:42:13;;;;;;;8.52;7.20;;;;;;;21.57;98.90;100146.16;5113304;28;20135;-78
2023/08/01 01:44:38;;;;;;;10.05;8.00;;;;;;;21.58;98.17;100150.59;5113565;28;20035;-80
2023/08/01 01:47:06;;;;;;;12.82;7.90;;;;;;;21.38;97.58;100116.00;5113417;28;20020;-78
2023/08/01 01:49:31;;;;;;;9.85;7.10;;;;;;;21.57;96.92;100148.91;5113311;28;20491;-79
2023/08/01 01:51:56;;;;;;;9.68;7.50;;;;;;;21.65;96.52;100156.06;5113490;28;20072;-79
2023/08/01 01:54:22;;;;;;;10.15;8.00;;;;;;;21.65;96.21;100151.41;5119706;28;20114;-79
2023/08/01 01:56:47;;;;;;;8.50;6.88;;;;;;;21.45;95.96;100109.50;5125349;28;20674;-83
2023/08/01 01:59:13;;;;;;;10.82;6.97;;;;;;;21.56;95.64;100124.47;5121672;28;20034;-79
2023/08/01 02:01:38;;;;;;;11.35;7.80;;;;;;;21.71;94.78;100153.31;5113516;28;20020;-79
2023/08/01 02:04:04;;;;;;;13.57;7.47;;;;;;;21.80;94.77;100153.16;5113123;28;20472;-77
2023/08/01 02:06:29;;;;;;;8.43;7.03;;;;;;;21.66;93.37;100128.50;5112647;28;20118;-78
2023/08/01 02:08:54;;;;;;;11.73;7.20;;;;;;;21.81;92.81;100150.19;5113174;28;20024;-77
2023/08/01 02:11:20;;;;;;;8.15;6.53;;;;;;;21.82;92.80;100145.56;5112727;28;20440;-78
2023/08/01 02:13:45;;;;;;;7.90;6.47;;;;;;;21.81;93.23;100146.59;5112963;28;20028;-78
2023/08/01 02:16:11;;;;;;;13.25;6.20;;;;;;;21.82;91.78;100157.34;5094492;28;20028;-77
2023/08/01 02:18:36;;;;;;;7.70;6.00;;;;;;;21.85;91.82;100167.03;5112761;28;20023;-79
2023/08/01 02:21:02;;;;;;;7.10;5.45;;;;;;;21.78;91.39;100155.22;5112925;28;20030;-77
2023/08/01 02:23:28;;;;;;;11.32;6.38;;;;;;;21.74;90.58;100149.34;5112762;28;20109;-76
2023/08/01 02:25:54;;;;;;;6.60;5.20;;;;;;;21.80;89.70;100155.88;5112799;28;20118;-78
2023/08/01 02:28:20;;;;;;;5.97;5.38;;;;;;;21.87;88.53;100164.94;5112867;28;20110;-79
2023/08/01 02:30:45;;;;;;;6.80;5.28;;;;;;;21.78;88.27;100156.06;5112978;28;20020;-77
2023/08/01 02:33:11;;;;;;;6.75;5.32;;;;;;;21.83;87.49;100170.00;5112415;28;20023;-80
2023/08/01 02:35:37;;;;;;;24.15;7.03;;;;;;;21.86;87.75;100174.22;5112392;28;20081;-81
2023/08/01 02:38:03;;;;;;;10.30;5.18;;;;;;;21.80;87.59;100169.56;5112326;28;20084;-78
2023/08/01 02:40:28;;;;;;;7.05;5.65;;;;;;;21.76;88.41;100171.88;5111878;28;20062;-80
2023/08/01 02:42:54;;;;;;;7.63;5.28;;;;;;;21.75;89.20;100174.81;5112555;28;20027;-78
2023/08/01 02:45:19;;;;;;;8.60;5.95;;;;;;;21.65;88.75;100156.06;5112455;28;20020;-78
2023/08/01 02:47:45;;;;;;;7.95;6.32;;;;;;;21.60;87.80;100156.69;5112868;28;20028;-77
2023/08/01 02:50:10;;;;;;;7.63;6.13;;;;;;;21.47;90.09;100132.03;5115868;28;20415;-80
2023/08/01 02:52:36;;;;;;;7.43;5.85;;;;;;;21.72;89.44;100181.56;5118841;28;20410;-76
2023/08/01 02:55:01;;;;;;;9.93;5.90;;;;;;;21.66;89.77;100169.53;5096764;28;20103;-79
2023/08/01 02:57:27;;;;;;;11.68;6.28;;;;;;;21.66;89.69;100175.03;5112845;28;20039;-78
2023/08/01 02:59:53;;;;;;;12.02;6.68;;;;;;;21.59;89.50;100176.03;5112565;28;20471;-77
2023/08/01 03:02:19;;;;;;;9.15;6.32;;;;;;;21.62;89.62;100184.69;5112590;28;20031;-79
2023/08/01 03:04:44;;;;;;;9.95;6.50;;;;;;;21.52;90.75;100178.78;5113229;28;20025;-79
2023/08/01 03:07:10;;;;;;;7.55;6.10;;;;;;;21.52;90.36;100189.72;5112311;28;20092;-80
2023/08/01 03:09:35;;;;;;;17.25;6.75;;;;;;;21.39;91.31;100172.41;5112543;28;20019;-77
2023/08/01 03:12:00;;;;;;;9.18;6.32;;;;;;;21.46;91.67;100190.56;5104684;28;20028;-80
2023/08/01 03:14:26;;;;;;;8.85;6.40;;;;;;;21.42;93.04;100194.75;5132838;28;20052;-80
2023/08/01 03:16:51;;;;;;;8.45;6.25;;;;;;;21.27;93.47;100171.31;5125858;28;20032;-81
2023/08/01 03:19:17;;;;;;;9.77;6.88;;;;;;;21.23;93.55;100179.09;5118330;28;20026;-82
2023/08/01 03:21:42;;;;;;;15.23;7.68;;;;;;;21.23;94.89;100173.63;5137060;28;20046;-81
2023/08/01 03:24:08;;;;;;;16.20;7.35;;;;;;;21.24;95.72;100186.25;5136646;28;20039;-81
2023/08/01 03:26:37;;;;;;;11.07;7.35;;;;;;;20.96;95.93;100155.38;5136800;28;20045;-82
2023/08/01 03:29:03;;;;;;;16.30;7.22;;;;;;;21.00;96.27;100164.88;5125138;28;20032;-77
2023/08/01 03:31:28;;;;;;;9.55;7.63;;;;;;;21.11;97.46;100188.94;5112772;28;20039;-79
2023/08/01 03:33:54;;;;;;;26.55;7.90;;;;;;;21.04;97.25;100174.34;5095844;28;20023;-77
2023/08/01 03:36:20;;;;;;;22.75;7.93;;;;;;;21.22;96.63;100193.00;5114882;28;20016;-77
2023/08/01 03:38:45;;;;;;;24.77;7.60;;;;;;;21.12;96.27;100172.34;5115365;28;20384;-77
2023/08/01 03:41:11;;;;;;;17.33;9.45;;;;;;;21.30;96.82;100201.84;5112181;28;20024;-79
2023/08/01 03:43:36;;;;;;;11.27;8.68;;;;;;;21.32;96.37;100199.75;5076827;28;20036;-81
2023/08/01 03:46:03;;;;;;;13.27;7.45;;;;;;;21.31;97.23;100198.09;5117523;28;20023;-79
2023/08/01 03:48:28;;;;;;;16.63;8.63;;;;;;;21.19;97.79;100183.31;5119964;28;20057;-79
2023/08/01 03:50:54;;;;;;;13.75;8.30;;;;;;;21.27;96.98;100191.31;5116618;28;20035;-81
2023/08/01 03:53:19;;;;;;;45.17;10.00;;;;;;;21.29;96.67;100213.84;5111155;28;20027;-79
2023/08/01 03:55:47;;;;;;;17.80;7.25;;;;;;;21.34;95.31;100203.13;5111340;28;20031;-80
2023/08/01 03:58:12;;;;;;;29.50;10.82;;;;;;;21.46;95.11;100220.66;5110580;28;20521;-79
2023/08/01 04:00:38;;;;;;;47.60;11.07;;;;;;;21.44;94.51;100209.06;5111066;28;20052;-81
2023/08/01 04:03:03;;;;;;;46.42;12.27;;;;;;;21.37;94.36;100190.94;5074027;28;20043;-78
2023/08/01 04:05:28;;;;;;;15.93;7.10;;;;;;;21.49;94.13;100209.28;5110759;28;20099;-80
2023/08/01 04:07:57;;;;;;;16.92;7.25;;;;;;;21.53;93.91;100202.34;5110768;28;20031;-80
2023/08/01 04:10:22;;;;;;;51.33;12.32;;;;;;;21.73;93.49;100220.72;5110583;28;20030;-79
2023/08/01 04:12:48;;;;;;;31.10;10.25;;;;;;;21.79;92.84;100200.72;5110278;28;20027;-80
2023/08/01 04:15:14;;;;;;;12.38;7.88;;;;;;;21.89;92.07;100214.91;5110882;28;20031;-78
2023/08/01 04:17:40;;;;;;;43.10;9.85;;;;;;;21.97;91.47;100225.66;5110710;28;20508;-80
2023/08/01 04:20:06;;;;;;;68.85;11.82;;;;;;;21.95;91.35;100209.44;5110868;28;20024;-79
2023/08/01 04:22:31;;;;;;;11.70;7.35;;;;;;;22.07;91.89;100215.13;5110356;28;20071;-82
2023/08/01 04:24:57;;;;;;;28.52;8.75;;;;;;;22.14;91.76;100225.03;5110095;28;20134;-79
2023/08/01 04:27:22;;;;;;;45.78;10.15;;;;;;;22.15;90.45;100228.63;5109973;28;20087;-79
2023/08/01 04:30:00;;;;;;;62.28;10.75;;;;;;;22.21;90.02;100230.53;5111058;28;20380;-79
2023/08/01 04:32:26;;;;;;;15.82;7.35;;;;;;;22.26;90.54;100224.44;5111555;28;20061;-79
2023/08/01 04:34:51;;;;;;;15.40;6.25;;;;;;;22.18;90.39;100217.25;5110639;28;20470;-81
2023/08/01 04:37:20;;;;;;;10.27;7.00;;;;;;;22.15;90.10;100193.00;5110429;28;20467;-79
2023/08/01 04:39:46;;;;;;;21.75;7.65;;;;;;;22.37;88.54;100221.03;5110034;28;20075;-80
2023/08/01 04:42:11;;;;;;;18.58;6.32;;;;;;;22.45;88.03;100229.88;5116182;28;20027;-79
2023/08/01 04:44:36;;;;;;;10.30;6.88;;;;;;;22.55;88.02;100229.47;5120408;28;20035;-79
2023/08/01 04:47:02;;;;;;;18.80;7.03;;;;;;;22.61;88.86;100223.97;5112857;28;20015;-79
2023/08/01 04:49:27;;;;;;;16.00;6.00;;;;;;;22.52;87.72;100195.09;5110310;28;20027;-78
2023/08/01 04:51:54;;;;;;;15.98;6.13;;;;;;;22.63;86.83;100205.41;5091538;28;20031;-79
2023/08/01 04:54:19;;;;;;;12.32;5.32;;;;;;;22.78;86.29;100224.44;5110317;28;20051;-86
2023/08/01 04:56:46;;;;;;;30.88;7.82;;;;;;;22.67;86.03;100189.41;5110210;28;20527;-80
2023/08/01 04:59:11;;;;;;;46.03;9.35;;;;;;;22.86;87.79;100199.50;5110429;28;20035;-82
2023/08/01 05:01:36;;;;;;;30.52;7.90;;;;;;;22.88;85.53;100196.53;5110470;28;20049;-82
2023/08/01 05:04:02;;;;;;;15.98;5.97;;;;;;;22.78;87.26;100161.38;5092007;28;20130;-80
2023/08/01 05:06:27;;;;;;;7.72;4.70;;;;;;;23.06;86.50;100204.91;5110231;28;20487;-87
2023/08/01 05:08:53;;;;;;;6.93;4.45;;;;;;;23.09;86.14;100219.06;5110852;28;20088;-81
2023/08/01 05:11:19;;;;;;;9.02;5.30;;;;;;;22.74;83.11;100165.59;5109960;28;20064;-80
2023/08/01 05:13:45;;;;;;;14.57;6.25;;;;;;;23.10;82.44;100222.66;5091281;28;20031;-83
2023/08/01 05:16:10;;;;;;;7.70;4.35;;;;;;;22.95;82.54;100183.66;5109592;28;20019;-79
2023/08/01 05:18:35;;;;;;;9.48;4.57;;;;;;;23.19;82.18;100205.72;5110182;28;20110;-85
2023/08/01 05:21:01;;;;;;;24.45;7.53;;;;;;;22.98;83.08;100159.38;5109473;28;20020;-83
2023/08/01 05:23:26;;;;;;;21.85;5.38;;;;;;;23.03;81.19;100162.31;5109798;28;20386;-83
2023/08/01 05:25:52;;;;;;;9.82;5.15;;;;;;;23.22;80.67;100188.00;5111886;28;20487;-84
2023/08/01 05:28:17;;;;;;;13.20;5.25;;;;;;;23.50;81.43;100232.44;5110555;28;20081;-84
2023/08/01 05:30:43;;;;;;;16.58;5.68;;;;;;;23.30;78.65;100177.59;5111696;28;20107;-81
2023/08/01 05:33:08;;;;;;;9.68;4.47;;;;;;;23.19;78.86;100163.72;5111641;28;20455;-83
2023/08/01 05:35:34;;;;;;;8.95;5.05;;;;;;;23.64;78.90;100233.22;5110705;28;20440;-81
2023/08/01 05:38:00;;;;;;;12.40;5.05;;;;;;;23.50;80.46;100212.38;5117797;28;20042;-80
2023/08/01 05:40:25;;;;;;;10.20;4.35;;;;;;;23.48;81.25;100214.53;5120680;28;20039;-82
2023/08/01 05:42:51;;;;;;;43.72;7.85;;;;;;;23.40;79.40;100185.41;5114868;28;20028;-81
2023/08/01 05:45:16;;;;;;;25.73;6.30;;;;;;;23.65;78.05;100221.19;5110354;28;20027;-83
2023/08/01 05:47:41;;;;;;;16.73;5.05;;;;;;;23.86;80.15;100240.06;5109639;28;20068;-82
2023/08/01 05:50:08;;;;;;;8.23;4.75;;;;;;;23.84;78.76;100237.56;5109832;28;20030;-81
2023/08/01 05:52:34;;;;;;;224.35;31.48;;;;;;;24.02;77.30;100244.19;5116800;28;20051;-89
2023/08/01 05:54:59;;;;;;;40.30;16.30;;;;;;;24.12;80.31;100228.09;5094837;28;20456;-79
2023/08/01 05:57:25;;;;;;;60.55;33.67;;;;;;;24.16;80.45;100232.91;5113392;28;20061;-81
2023/08/01 05:59:50;;;;;;;68.15;41.05;;;;;;;24.22;81.95;100217.44;5111073;28;20019;-81
2023/08/01 06:02:16;;;;;;;67.07;35.80;;;;;;;24.29;81.60;100219.09;5112452;28;20031;-80
2023/08/01 06:04:41;;;;;;;43.03;26.67;;;;;;;24.30;81.26;100204.28;5112903;28;20016;-81
2023/08/01 06:07:07;;;;;;;32.20;23.45;;;;;;;24.24;81.72;100191.44;5112950;28;20039;-80
2023/08/01 06:09:32;;;;;;;46.47;26.15;;;;;;;24.15;79.83;100167.22;5094341;28;20031;-80
2023/08/01 06:11:58;;;;;;;23.35;17.52;;;;;;;24.42;77.83;100215.41;5112783;28;20055;-81
2023/08/01 06:14:23;;;;;;;27.27;19.35;;;;;;;24.31;76.86;100199.63;5112928;28;20024;-81
2023/08/01 06:16:49;;;;;;;28.98;18.25;;;;;;;24.22;75.69;100171.56;5112689;28;20042;-81
2023/08/01 06:19:14;;;;;;;30.23;20.00;;;;;;;24.41;77.41;100188.09;5112473;28;20023;-84
2023/08/01 06:21:39;;;;;;;39.22;20.33;;;;;;;24.63;77.19;100214.97;5112899;28;20032;-83
2023/08/01 06:24:05;;;;;;;35.08;18.35;;;;;;;24.46;76.15;100177.28;5112593;28;20051;-81
2023/08/01 06:26:30;;;;;;;35.13;17.20;;;;;;;24.59;76.87;100197.25;5113904;28;20031;-84
2023/08/01 06:28:56;;;;;;;29.77;18.23;;;;;;;24.69;76.37;100213.22;5114520;28;20032;-80
2023/08/01 06:31:22;;;;;;;34.20;18.67;;;;;;;24.44;75.81;100174.75;5131515;28;20031;-90
2023/08/01 06:33:47;;;;;;;42.20;21.83;;;;;;;24.44;76.71;100177.50;5100416;28;20039;-80
2023/08/01 06:36:13;;;;;;;37.30;17.52;;;;;;;24.49;76.61;100163.94;5119758;28;20028;-86
2023/08/01 06:38:39;;;;;;;20.83;13.50;;;;;;;24.81;75.73;100217.78;5117994;28;20039;-87
2023/08/01 06:41:04;;;;;;;20.80;12.00;;;;;;;24.76;75.09;100195.63;5113602;28;20092;-85
2023/08/01 06:43:30;;;;;;;12.77;10.85;;;;;;;24.37;73.95;100116.28;5113943;28;20451;-84
2023/08/01 06:45:55;;;;;;;22.92;11.57;;;;;;;24.94;74.85;100200.31;5113843;28;20517;-80
2023/08/01 06:48:21;;;;;;;19.67;10.07;;;;;;;24.99;73.83;100207.88;5112886;28;20035;-82
2023/08/01 06:50:46;;;;;;;19.52;10.98;;;;;;;24.62;74.45;100144.53;5113220;28;20106;-83
2023/08/01 06:53:12;;;;;;;15.00;9.43;;;;;;;24.56;74.12;100126.19;5113303;28;20032;-84
2023/08/01 06:55:37;;;;;;;23.48;9.90;;;;;;;24.94;74.24;100171.94;5112119;28;20027;-84
2023/08/01 06:58:03;;;;;;;17.80;9.15;;;;;;;25.04;74.61;100177.78;5112199;28;20054;-86
2023/08/01 07:00:28;;;;;;;18.52;9.70;;;;;;;25.16;73.25;100187.78;5093356;28;20015;-83
2023/08/01 07:02:53;;;;;;;23.73;10.05;;;;;;;25.29;71.05;100203.28;5112297;28;20032;-87
2023/08/01 07:05:19;;;;;;;24.73;9.82;;;;;;;25.11;69.85;100162.00;5110903;28;20028;-82
2023/08/01 07:07:45;;;;;;;15.40;8.80;;;;;;;25.30;71.89;100171.94;5111735;28;20093;-81
2023/08/01 07:10:10;;;;;;;15.52;9.23;;;;;;;25.52;70.01;100203.44;5111489;28;20030;-80
2023/08/01 07:12:36;;;;;;;15.65;9.60;;;;;;;25.44;69.51;100179.78;5111433;28;20031;-81
2023/08/01 07:15:01;;;;;;;20.05;8.35;;;;;;;25.49;69.39;100165.34;5112021;28;20474;-80
2023/08/01 07:17:27;;;;;;;17.23;5.78;;;;;;;25.37;69.64;100145.16;5111391;28;20531;-81
2023/08/01 07:19:54;;;;;;;28.80;8.85;;;;;;;25.57;67.23;100178.78;5111279;28;20399;-79
2023/08/01 07:22:20;;;;;;;10.73;4.00;;;;;;;25.59;67.71;100187.69;5093805;28;20256;-79
2023/08/01 07:24:45;;;;;;;4.15;2.72;;;;;;;25.54;67.62;100184.75;5112679;28;20442;-80
2023/08/01 07:27:12;;;;;;;9.77;5.05;;;;;;;25.56;65.91;100182.63;5111904;28;20577;-79
2023/08/01 07:29:37;;;;;;;19.15;4.95;;;;;;;25.61;65.10;100190.19;5115570;28;20479;-77
2023/08/01 07:32:04;;;;;;;8.68;3.03;;;;;;;25.58;63.28;100174.97;5121513;28;20056;-80
2023/08/01 07:34:29;;;;;;;2.97;2.35;;;;;;;25.70;64.77;100192.38;5116498;28;20517;-78
2023/08/01 07:36:55;;;;;;;2.63;2.10;;;;;;;25.54;64.46;100184.75;5111763;28;20055;-80
2023/08/01 07:39:20;;;;;;;22.25;4.07;;;;;;;25.44;62.29;100182.53;5111356;28;20528;-77
2023/08/01 07:41:46;;;;;;;15.93;4.07;;;;;;;25.56;63.43;100193.66;5110859;28;20028;-77
2023/08/01 07:44:12;;;;;;;14.60;4.03;;;;;;;25.58;65.24;100182.38;5110904;28;20026;-79
2023/08/01 07:46:37;;;;;;;3.78;2.72;;;;;;;25.77;64.35;100195.91;5110574;28;20023;-77
2023/08/01 07:49:02;;;;;;;4.43;3.75;;;;;;;25.99;62.20;100197.03;5110715;28;20027;-78
2023/08/01 07:51:29;;;;;;;48.67;6.43;;;;;;;26.16;62.10;100196.38;5110417;28;20023;-80
2023/08/01 07:53:55;;;;;;;26.75;6.57;;;;;;;26.28;64.24;100191.72;5110553;28;20039;-77
2023/08/01 07:56:21;;;;;;;35.25;9.55;;;;;;;25.87;66.89;100126.44;5110391;28;20031;-77
2023/08/01 07:58:46;;;;;;;14.88;8.35;;;;;;;26.24;67.98;100199.63;5092243;28;20092;-79
2023/08/01 08:01:12;;;;;;;32.70;9.35;;;;;;;26.21;69.15;100191.84;5110772;28;20066;-78
2023/08/01 08:03:37;;;;;;;36.05;8.95;;;;;;;26.17;69.26;100190.66;5110814;28;20027;-78
2023/08/01 08:06:04;;;;;;;72.40;14.60;;;;;;;26.11;68.73;100187.97;5110820;28;20023;-79
2023/08/01 08:08:30;;;;;;;16.45;7.22;;;;;;;25.95;69.86;100182.06;5091948;28;20066;-76
2023/08/01 08:10:55;;;;;;;22.88;8.52;;;;;;;25.98;70.93;100192.59;5110195;28;20024;-77
2023/08/01 08:13:21;;;;;;;19.60;9.10;;;;;;;25.82;71.26;100182.25;5110425;28;20142;-77
2023/08/01 08:15:47;;;;;;;25.13;7.65;;;;;;;25.90;71.87;100194.88;5109956;28;20039;-80
2023/08/01 08:18:12;;;;;;;16.17;7.55;;;;;;;25.89;72.08;100205.03;5110303;28;20034;-77
2023/08/01 08:20:45;;;;;;;18.48;8.68;;;;;;;25.97;71.58;100185.41;5111406;28;20024;-77
2023/08/01 08:23:13;;;;;;;33.67;8.68;;;;;;;26.06;72.38;100190.56;5111092;28;20085;-81
2023/08/01 08:25:40;;;;;;;20.30;8.20;;;;;;;26.04;71.28;100163.25;5113669;28;20020;-80
2023/08/01 08:28:05;;;;;;;16.75;7.07;;;;;;;26.17;70.92;100173.25;5117553;28;20105;-77
2023/08/01 08:30:31;;;;;;;11.50;7.20;;;;;;;26.29;70.87;100193.41;5112537;28;20088;-77
2023/08/01 08:32:58;;;;;;;9.85;6.40;;;;;;;26.06;70.03;100157.47;5110919;28;20110;-77
2023/08/01 08:35:24;;;;;;;18.02;5.75;;;;;;;26.24;69.72;100179.47;5110703;28;20506;-78
2023/08/01 08:37:49;;;;;;;12.35;6.65;;;;;;;26.31;68.81;100182.97;5091606;28;20028;-77
2023/08/01 08:40:15;;;;;;;22.10;5.75;;;;;;;26.14;69.62;100169.03;5107298;28;20063;-78
2023/08/01 08:42:42;;;;;;;15.45;5.40;;;;;;;26.25;69.38;100192.19;5108884;28;20072;-78
2023/08/01 08:45:07;;;;;;;7.18;5.22;;;;;;;26.23;69.51;100186.09;5109193;28;20042;-78
2023/08/01 08:47:38;;;;;;;27.58;7.25;;;;;;;26.25;69.64;100181.16;5109535;28;20118;-76
2023/08/01 08:50:05;;;;;;;16.98;5.05;;;;;;;26.24;69.28;100196.03;5109079;28;20505;-81
2023/08/01 08:52:30;;;;;;;24.55;6.57;;;;;;;26.10;69.82;100191.78;5109634;28;20026;-78
2023/08/01 08:54:57;;;;;;;16.42;5.47;;;;;;;26.03;68.59;100172.59;5109414;28;20027;-81
2023/08/01 08:57:24;;;;;;;12.23;4.75;;;;;;;26.09;69.21;100187.34;5091907;28;20479;-82
2023/08/01 08:59:49;;;;;;;10.23;4.80;;;;;;;26.05;69.80;100169.59;5109175;28;20407;-78
2023/08/01 09:02:16;;;;;;;16.80;5.93;;;;;;;26.14;69.13;100190.25;5109139;28;20020;-78
2023/08/01 09:04:42;;;;;;;14.90;5.25;;;;;;;26.17;69.22;100184.28;5091806;28;20027;-77
2023/08/01 09:07:10;;;;;;;13.98;5.53;;;;;;;26.15;69.49;100175.34;5072794;28;20097;-78
2023/08/01 09:09:36;;;;;;;14.82;4.97;;;;;;;25.95;68.68;100145.38;5091158;28;20024;-79
2023/08/01 09:12:02;;;;;;;13.88;4.57;;;;;;;26.14;69.15;100170.94;5108979;28;20031;-79
2023/08/01 09:14:27;;;;;;;10.35;5.22;;;;;;;26.28;69.48;100194.47;5109823;28;20035;-77
2023/08/01 09:16:53;;;;;;;7.57;4.35;;;;;;;26.20;68.95;100178.28;5091054;28;20028;-77
2023/08/01 09:19:23;;;;;;;11.93;5.13;;;;;;;26.33;69.77;100175.28;5109019;28;20453;-78
2023/08/01 09:21:50;;;;;;;19.52;5.30;;;;;;;26.36;68.40;100177.59;5112695;28;20024;-79
2023/08/01 09:24:20;;;;;;;14.85;4.85;;;;;;;26.16;69.97;100155.03;5112689;28;20077;-78
2023/08/01 09:26:47;;;;;;;6.57;5.38;;;;;;;26.21;70.46;100174.44;5112413;28;20114;-79
2023/08/01 09:29:13;;;;;;;30.77;5.25;;;;;;;26.30;71.18;100175.78;5113929;28;20027;-80
2023/08/01 09:31:40;;;;;;;9.07;5.72;;;;;;;26.39;68.97;100177.13;5077175;28;20418;-78
2023/08/01 09:34:27;;;;;;;15.68;5.00;;;;;;;26.45;68.72;100170.66;5114078;28;20035;-77
2023/08/01 09:37:00;;;;;;;13.60;4.82;;;;;;;26.58;68.35;100170.41;5094826;28;20016;-77
2023/08/01 09:39:26;;;;;;;11.50;4.38;;;;;;;26.71;67.23;100169.31;5112945;28;20034;-77
2023/08/01 09:42:02;;;;;;;6.20;4.32;;;;;;;26.72;66.36;100171.84;5113129;28;20027;-78
2023/08/01 09:44:29;;;;;;;20.77;4.05;;;;;;;26.72;67.12;100149.78;5112769;28;20096;-80
2023/08/01 09:47:03;;;;;;;6.80;4.45;;;;;;;26.81;65.88;100158.56;5113289;28;20028;-78
2023/08/01 09:49:30;;;;;;;20.83;5.43;;;;;;;26.97;64.54;100169.66;5112696;28;20375;-78
2023/08/01 09:51:56;;;;;;;5.55;3.72;;;;;;;27.02;64.36;100161.53;5113005;28;20505;-79
2023/08/01 09:54:22;;;;;;;6.43;3.85;;;;;;;27.09;64.23;100166.91;5113541;28;20030;-77
2023/08/01 09:56:50;;;;;;;16.52;4.97;;;;;;;27.12;64.71;100160.06;5113692;28;20110;-77
2023/08/01 09:59:21;;;;;;;7.28;4.03;;;;;;;27.22;63.79;100160.25;5094534;28;20034;-79
2023/08/01 10:01:50;;;;;;;9.20;5.20;;;;;;;27.23;63.11;100161.94;5089827;28;20036;-78
2023/08/01 10:04:18;;;;;;;5.47;3.90;;;;;;;27.39;62.86;100155.66;5089856;28;20044;-77
2023/08/01 10:06:49;;;;;;;9.05;4.57;;;;;;;27.47;62.07;100152.50;5089810;28;20147;-78
2023/08/01 10:09:16;;;;;;;6.68;3.72;;;;;;;27.46;62.35;100151.66;5090363;28;20039;-77
2023/08/01 10:11:42;;;;;;;6.47;4.15;;;;;;;27.76;61.61;100156.97;5091248;28;20044;-77
2023/08/01 10:14:08;;;;;;;14.98;4.40;;;;;;;27.74;61.08;100152.75;5091543;28;20024;-78
2023/08/01 10:16:36;;;;;;;25.73;5.20;;;;;;;27.43;60.69;100096.09;5073065;28;20474;-76
2023/08/01 10:19:02;;;;;;;15.93;5.13;;;;;;;27.64;60.16;100133.22;5107746;28;20059;-76
2023/08/01 10:21:29;;;;;;;5.68;4.68;;;;;;;27.75;60.53;100133.16;5098429;28;20066;-77
2023/08/01 10:23:55;;;;;;;23.80;5.82;;;;;;;27.99;60.26;100134.69;5103672;28;20137;-78
2023/08/01 10:26:21;;;;;;;17.95;4.95;;;;;;;28.23;59.23;100137.31;5101107;28;20023;-80
2023/08/01 10:28:51;;;;;;;54.38;7.65;;;;;;;27.96;58.63;100118.59;5090293;28;20073;-80
2023/08/01 10:31:18;;;;;;;17.77;4.47;;;;;;;27.90;58.61;100146.41;5090926;28;20048;-80
2023/08/01 10:33:46;;;;;;;26.85;4.45;;;;;;;27.81;59.21;100140.47;5110286;28;20039;-77
2023/08/01 10:36:22;;;;;;;21.00;5.93;;;;;;;27.81;58.69;100129.41;5112675;28;20080;-79
2023/08/01 10:38:51;;;;;;;12.85;4.25;;;;;;;27.94;58.14;100131.00;5111546;28;20421;-78
2023/08/01 10:41:27;;;;;;;11.82;4.43;;;;;;;27.75;58.58;100111.06;5113399;28;20031;-78
2023/08/01 10:44:13;;;;;;;18.58;5.30;;;;;;;27.94;58.49;100126.31;5093475;28;20407;-78
2023/08/01 10:47:08;;;;;;;8.73;4.50;;;;;;;28.00;57.64;100117.03;5111619;28;20031;-77
2023/08/01 10:49:38;;;;;;;20.00;5.68;;;;;;;28.19;57.84;100117.66;5008583;28;20604;-80
2023/08/01 10:52:19;;;;;;;10.65;4.35;;;;;;;28.31;56.59;100099.03;4992332;28;20042;-77
2023/08/01 10:54:45;;;;;;;9.57;3.60;;;;;;;28.61;56.05;100110.53;5008546;28;20041;-76
2023/08/01 10:57:19;;;;;;;42.03;7.07;;;;;;;28.70;55.02;100108.19;5008684;28;20057;-78
2023/08/01 10:59:45;;;;;;;21.15;4.65;;;;;;;28.41;55.82;100081.72;4992191;28;20046;-79
2023/08/01 11:02:10;;;;;;;10.32;4.75;;;;;;;28.58;56.07;100093.59;4991894;28;20026;-78
2023/08/01 11:04:36;;;;;;;5.80;3.28;;;;;;;28.40;57.36;100104.97;5008488;28;20545;-77
2023/08/01 11:07:01;;;;;;;9.90;4.43;;;;;;;28.25;56.86;100071.53;5008165;28;20102;-76
2023/08/01 11:09:28;;;;;;;12.23;4.75;;;;;;;28.58;57.40;100099.13;5008479;28;20156;-78
2023/08/01 11:11:58;;;;;;;9.52;3.75;;;;;;;28.67;57.94;100097.63;5008704;28;20034;-79
2023/08/01 11:14:28;;;;;;;15.23;4.72;;;;;;;28.43;56.12;100049.97;5009588;28;20115;-82
2023/08/01 11:16:59;;;;;;;11.70;4.88;;;;;;;28.68;55.68;100099.31;5018696;28;20037;-81